Terminal Aerodrome Forecast
Issued by NWS

Home | Current Version | Previous Version | Text Only | Print | Product List | Glossary On
Versions: 1 2 3 4 5 6 7 8 9 10 11 12 13
000
FTUS42 KGSP 230540
TAFGMU
TAF
KGMU 230540Z 2306/2406 02003KT P6SM OVC040
     FM231100 04007KT P6SM -RA BKN015 OVC021
     FM231700 05009KT 2SM -RA BR OVC010
     FM232000 06010KT 2SM -SHRA BR OVC003 WS020/10035KT
     FM240100 13007KT 2SM -SHRA BR VCTS OVC004CB
     FM240200 19008KT 1 1/2SM -SHRA BR OVC004
     FM240400 23010KT 1 1/2SM BR OVC006=

USA.gov is the U.S. government's official web portal to all federal, state and local government web resources and services.